Time;durP1;ratioP1;P1;durP2;ratioP2;P2;SDS_P1;SDS_P2;PMS_P1;PMS_P2;Temp;Humidity;BMP_temperature;BMP_pressure;BME280_temperature;BME280_humidity;BME280_pressure;Samples;Min_cycle;Max_cycle;Signal;HPM_P1;HPM_P2
2021/06/29 00:00:09;;;;;;;13.10;8.50;;;;;;;27.76;51.58;101042.13;5014615;28;20410;-61
2021/06/29 00:02:34;;;;;;;15.43;9.65;;;;;;;27.66;51.95;101047.41;5014073;28;20040;-60
2021/06/29 00:05:00;;;;;;;14.15;9.30;;;;;;;27.68;51.72;101056.25;4996410;28;20062;-62
2021/06/29 00:07:25;;;;;;;15.13;8.57;;;;;;;27.64;51.49;101049.53;5014401;28;20080;-62
2021/06/29 00:09:50;;;;;;;16.15;8.80;;;;;;;27.62;51.84;101043.41;5014151;28;20034;-60
2021/06/29 00:12:16;;;;;;;18.75;9.35;;;;;;;27.61;51.59;101041.75;5014031;28;20033;-61
2021/06/29 00:14:44;;;;;;;15.30;8.82;;;;;;;27.54;51.55;101047.34;5012681;28;20030;-61
2021/06/29 00:17:09;;;;;;;12.93;8.13;;;;;;;27.43;52.61;101045.41;4996655;28;20033;-61
2021/06/29 00:19:35;;;;;;;16.23;9.13;;;;;;;27.31;52.28;101049.16;4996661;28;20049;-63
2021/06/29 00:22:00;;;;;;;11.77;9.02;;;;;;;27.14;52.47;101038.78;5014128;28;20026;-62
2021/06/29 00:24:26;;;;;;;13.43;8.77;;;;;;;26.98;52.78;101044.94;5013781;28;20034;-62
2021/06/29 00:26:51;;;;;;;13.70;9.15;;;;;;;26.84;53.42;101048.09;5013782;28;20041;-62
2021/06/29 00:29:16;;;;;;;14.43;9.45;;;;;;;26.72;52.78;101058.16;5017082;28;20046;-61
2021/06/29 00:31:42;;;;;;;14.25;8.18;;;;;;;26.61;53.27;101046.84;5033980;28;20056;-61
2021/06/29 00:34:07;;;;;;;14.45;8.73;;;;;;;26.56;53.39;101032.09;5022368;28;20035;-61
2021/06/29 00:36:33;;;;;;;12.23;7.53;;;;;;;26.51;53.64;101009.97;5053566;28;20037;-61
2021/06/29 00:38:58;;;;;;;10.95;8.02;;;;;;;26.47;53.76;100990.34;5053248;28;20143;-59
2021/06/29 00:41:23;;;;;;;14.02;7.88;;;;;;;26.46;54.22;100974.09;5053275;28;20114;-61
2021/06/29 00:43:50;;;;;;;14.35;7.45;;;;;;;26.40;53.89;100964.03;5053505;28;20040;-62
2021/06/29 00:46:16;;;;;;;9.63;7.13;;;;;;;26.39;54.19;100967.84;5035599;28;20358;-63
2021/06/29 00:48:43;;;;;;;11.10;7.10;;;;;;;26.38;54.54;100961.50;5035902;28;20056;-62
2021/06/29 00:51:11;;;;;;;9.88;6.93;;;;;;;26.35;54.14;100956.47;5053122;28;20059;-62
2021/06/29 00:53:37;;;;;;;10.57;7.00;;;;;;;26.31;54.26;100955.25;5053161;28;20048;-61
2021/06/29 00:56:02;;;;;;;10.00;6.70;;;;;;;26.29;54.74;100953.81;5053366;28;20033;-61
2021/06/29 00:58:28;;;;;;;9.52;7.38;;;;;;;26.25;54.29;100949.81;5035575;28;20385;-62
2021/06/29 01:00:54;;;;;;;10.68;6.75;;;;;;;26.22;54.75;100942.88;5053126;28;20104;-61
2021/06/29 01:03:19;;;;;;;8.93;6.63;;;;;;;26.17;54.57;100936.41;5053303;28;20032;-60
2021/06/29 01:05:45;;;;;;;9.57;6.75;;;;;;;26.20;54.67;100935.94;5000933;28;20025;-61
2021/06/29 01:08:10;;;;;;;11.00;6.57;;;;;;;26.17;54.50;100939.97;5033660;28;20029;-61
2021/06/29 01:10:36;;;;;;;7.85;6.18;;;;;;;26.15;55.01;100922.06;5033285;28;20052;-60
2021/06/29 01:13:02;;;;;;;13.20;7.13;;;;;;;26.13;54.94;100926.91;5031866;28;20033;-59
2021/06/29 01:15:27;;;;;;;10.75;7.00;;;;;;;26.15;54.34;100938.53;5032417;28;20562;-59
2021/06/29 01:17:57;;;;;;;12.93;7.35;;;;;;;26.13;54.83;100946.94;5033019;28;20064;-60
2021/06/29 01:20:32;;;;;;;8.85;6.60;;;;;;;26.12;55.21;100934.31;5015352;28;20021;-60
2021/06/29 01:23:03;;;;;;;10.60;6.60;;;;;;;26.13;55.28;100935.16;5036333;28;20025;-60
2021/06/29 01:25:30;;;;;;;11.90;6.88;;;;;;;26.14;55.16;100936.84;5036728;28;20033;-60
2021/06/29 01:28:08;;;;;;;12.32;6.15;;;;;;;26.15;54.96;100941.28;5035502;28;20033;-60
2021/06/29 01:33:20;;;;;;;10.93;6.07;;;;;;;26.14;55.30;100920.38;5035643;28;20041;-60
2021/06/29 01:35:46;;;;;;;12.90;6.93;;;;;;;26.21;55.29;100915.66;5036873;28;20449;-60
2021/06/29 01:38:16;;;;;;;12.00;6.82;;;;;;;26.23;54.85;100930.00;5036735;28;20064;-60
2021/06/29 01:40:41;;;;;;;9.02;6.03;;;;;;;26.23;54.84;100930.00;5036766;28;20044;-60
2021/06/29 01:43:07;;;;;;;9.75;6.15;;;;;;;26.25;55.07;100923.19;5018589;28;20029;-60
2021/06/29 01:45:33;;;;;;;10.68;5.97;;;;;;;26.27;54.69;100931.22;5036330;28;20459;-60
2021/06/29 01:48:01;;;;;;;9.05;5.97;;;;;;;26.29;55.17;100934.56;5035276;28;20064;-60
2021/06/29 01:50:26;;;;;;;8.50;5.30;;;;;;;26.28;55.03;100933.72;5036202;28;20025;-59
2021/06/29 01:52:57;;;;;;;15.25;6.28;;;;;;;26.26;54.52;100932.28;5018505;28;20075;-59
2021/06/29 01:55:23;;;;;;;9.20;6.45;;;;;;;26.23;54.71;100935.47;5036496;28;20049;-60
2021/06/29 01:57:49;;;;;;;12.32;7.00;;;;;;;26.24;54.53;100931.69;5035189;28;20056;-59
2021/06/29 02:00:15;;;;;;;11.40;6.20;;;;;;;26.25;54.72;100933.34;5036089;28;20070;-59
2021/06/29 02:02:41;;;;;;;13.85;7.18;;;;;;;26.24;54.80;100931.69;5034787;28;20052;-59
2021/06/29 02:05:07;;;;;;;13.15;7.32;;;;;;;26.24;54.30;100938.00;5036577;28;20064;-59
2021/06/29 02:07:32;;;;;;;9.73;6.88;;;;;;;26.18;54.26;100927.94;5036253;28;20047;-60
2021/06/29 02:09:58;;;;;;;11.23;6.25;;;;;;;26.23;54.27;100930.00;5036098;28;20033;-60
2021/06/29 02:12:23;;;;;;;10.20;6.00;;;;;;;26.21;54.54;100926.63;5036149;28;20029;-58
2021/06/29 02:14:48;;;;;;;11.40;5.78;;;;;;;26.20;54.14;100930.44;5036057;28;20064;-59
2021/06/29 02:17:14;;;;;;;7.20;6.00;;;;;;;26.20;54.49;100938.69;5036099;28;20025;-59
2021/06/29 02:19:39;;;;;;;7.57;6.35;;;;;;;26.20;54.60;100935.94;5036538;28;20374;-59
2021/06/29 02:22:06;;;;;;;7.47;5.32;;;;;;;26.21;54.48;100934.88;5036201;28;20044;-58
2021/06/29 02:24:32;;;;;;;11.48;6.47;;;;;;;26.21;53.94;100932.13;5035968;28;20492;-59
2021/06/29 02:26:58;;;;;;;7.38;5.43;;;;;;;26.21;54.48;100926.63;5035590;28;20036;-60
2021/06/29 02:29:23;;;;;;;9.38;6.85;;;;;;;26.20;54.13;100924.94;5035566;28;20045;-61
2021/06/29 02:31:48;;;;;;;10.75;6.53;;;;;;;26.21;54.25;100932.97;5035819;28;20493;-60
2021/06/29 02:34:14;;;;;;;7.63;5.60;;;;;;;26.22;54.32;100933.78;5035149;28;20105;-60
2021/06/29 02:36:39;;;;;;;7.53;6.22;;;;;;;26.21;54.42;100932.13;5035941;28;20482;-60
2021/06/29 02:39:05;;;;;;;12.32;6.55;;;;;;;26.20;54.61;100928.53;5040305;28;20029;-59
2021/06/29 02:41:30;;;;;;;9.73;6.63;;;;;;;26.18;54.16;100916.94;5055205;28;20075;-59
2021/06/29 02:43:56;;;;;;;8.75;6.05;;;;;;;26.18;54.53;100918.84;5037963;28;20040;-60
2021/06/29 02:46:21;;;;;;;10.32;6.40;;;;;;;26.20;54.02;100924.94;5055144;28;20057;-59
2021/06/29 02:48:46;;;;;;;10.10;5.82;;;;;;;26.20;54.28;100919.47;5055331;28;20107;-59
2021/06/29 02:51:13;;;;;;;11.02;5.88;;;;;;;26.20;54.36;100920.31;5055021;28;20498;-59
2021/06/29 02:53:38;;;;;;;12.20;6.47;;;;;;;26.18;54.29;100921.59;5055543;28;20033;-59
2021/06/29 02:56:04;;;;;;;8.98;5.93;;;;;;;26.16;54.48;100924.56;5055551;28;20040;-59
2021/06/29 02:58:29;;;;;;;10.70;6.03;;;;;;;26.13;54.25;100918.69;5055815;28;20024;-60
2021/06/29 03:00:54;;;;;;;9.55;6.15;;;;;;;26.11;53.84;100921.63;5055163;28;20033;-60
2021/06/29 03:03:20;;;;;;;8.82;6.15;;;;;;;26.10;54.41;100930.13;5054833;28;20032;-59
2021/06/29 03:05:45;;;;;;;9.35;6.55;;;;;;;26.10;54.36;100928.22;5054758;28;20033;-59
2021/06/29 03:08:10;;;;;;;8.40;6.63;;;;;;;26.10;53.80;100935.59;5054707;28;20029;-60
2021/06/29 03:10:36;;;;;;;9.73;5.07;;;;;;;26.09;54.15;100937.50;5054886;28;20064;-60
2021/06/29 03:13:01;;;;;;;10.57;5.35;;;;;;;26.08;53.64;100934.97;5054858;28;20037;-60
2021/06/29 03:15:27;;;;;;;15.57;6.38;;;;;;;26.05;54.53;100933.53;5054871;28;20061;-60
2021/06/29 03:17:53;;;;;;;7.65;4.50;;;;;;;26.10;54.31;100935.59;5054532;28;20052;-60
2021/06/29 03:20:18;;;;;;;8.82;5.32;;;;;;;26.09;53.74;100944.91;5055217;28;20032;-60
2021/06/29 03:22:44;;;;;;;10.52;5.38;;;;;;;26.07;54.38;100934.16;5054657;28;20130;-59
2021/06/29 03:25:10;;;;;;;11.23;5.57;;;;;;;26.08;54.46;100940.47;5054563;28;20040;-59
2021/06/29 03:27:36;;;;;;;7.47;4.82;;;;;;;26.08;54.28;100937.72;5054547;28;20044;-59
2021/06/29 03:30:03;;;;;;;9.45;5.15;;;;;;;26.07;53.84;100925.06;5054274;28;20045;-60
2021/06/29 03:32:28;;;;;;;12.40;5.80;;;;;;;26.07;54.48;100920.44;5054509;28;20037;-60
2021/06/29 03:34:54;;;;;;;8.18;5.45;;;;;;;26.08;53.72;100926.72;5054030;28;20048;-60
2021/06/29 03:37:19;;;;;;;6.20;4.75;;;;;;;26.07;54.01;100922.34;5053906;28;20036;-60
2021/06/29 03:39:44;;;;;;;7.30;4.57;;;;;;;26.09;53.90;100928.44;5036419;28;20056;-59
2021/06/29 03:42:10;;;;;;;7.07;4.53;;;;;;;26.09;54.15;100934.75;5054371;28;20036;-58
2021/06/29 03:44:35;;;;;;;13.32;5.25;;;;;;;26.08;53.88;100934.97;5036763;28;20033;-60
2021/06/29 03:47:01;;;;;;;11.80;4.85;;;;;;;26.07;53.51;100933.31;5053581;28;20527;-59
2021/06/29 03:49:26;;;;;;;6.15;4.18;;;;;;;26.06;53.71;100937.97;5036298;28;20049;-59
2021/06/29 03:51:53;;;;;;;10.55;5.10;;;;;;;26.03;54.25;100942.00;5053939;28;20489;-60
2021/06/29 03:54:19;;;;;;;6.68;4.13;;;;;;;26.01;54.07;100937.81;5054268;28;20033;-59
2021/06/29 03:56:44;;;;;;;5.68;4.18;;;;;;;25.99;54.55;100946.25;5036319;28;20395;-60
2021/06/29 03:59:10;;;;;;;7.72;4.65;;;;;;;25.94;54.07;100935.13;5054335;28;20090;-59
2021/06/29 04:01:36;;;;;;;8.85;4.82;;;;;;;25.94;54.42;100948.84;5054092;28;20037;-60
2021/06/29 04:04:03;;;;;;;8.77;4.35;;;;;;;25.94;54.38;100942.50;5054285;28;20158;-59
2021/06/29 04:06:30;;;;;;;10.70;4.32;;;;;;;25.91;54.15;100932.81;5054025;28;20391;-59
2021/06/29 04:08:57;;;;;;;6.63;4.00;;;;;;;25.95;54.28;100939.56;5053990;28;20059;-59
2021/06/29 04:11:23;;;;;;;5.63;4.50;;;;;;;25.95;54.02;100949.69;5054089;28;20108;-59
2021/06/29 04:13:49;;;;;;;6.60;4.63;;;;;;;25.92;54.07;100940.00;5053896;28;20029;-60
2021/06/29 04:16:14;;;;;;;6.30;3.63;;;;;;;25.93;54.18;100935.38;5054054;28;20382;-59
2021/06/29 04:18:40;;;;;;;4.55;3.88;;;;;;;25.93;54.07;100940.84;5053533;28;20029;-59
2021/06/29 04:21:06;;;;;;;6.32;3.67;;;;;;;25.90;54.11;100936.66;5036013;28;20146;-60
2021/06/29 04:23:31;;;;;;;10.75;4.78;;;;;;;25.93;54.41;100929.88;5053640;28;20021;-59
2021/06/29 04:25:57;;;;;;;13.20;4.95;;;;;;;25.96;53.95;100935.72;5053402;28;20025;-59
2021/06/29 04:28:22;;;;;;;5.38;4.43;;;;;;;25.98;54.04;100933.63;5053695;28;20377;-59
2021/06/29 04:30:47;;;;;;;6.75;3.97;;;;;;;26.03;54.14;100931.03;5050930;28;20057;-60
2021/06/29 04:33:13;;;;;;;7.50;2.75;;;;;;;26.10;54.33;100924.63;5053643;28;20041;-59
2021/06/29 04:35:38;;;;;;;4.40;2.92;;;;;;;26.15;54.21;100941.28;5053314;28;20021;-60
2021/06/29 04:38:04;;;;;;;4.13;2.97;;;;;;;26.16;53.91;100935.53;5053346;28;20535;-60
2021/06/29 04:40:29;;;;;;;5.82;2.85;;;;;;;26.17;53.97;100936.41;5035786;28;20048;-60
2021/06/29 04:42:55;;;;;;;6.00;3.15;;;;;;;26.15;53.89;100928.41;5035441;28;20120;-60
2021/06/29 04:45:20;;;;;;;3.15;2.47;;;;;;;26.16;53.88;100934.72;5053527;28;20116;-60
2021/06/29 04:47:47;;;;;;;4.10;2.40;;;;;;;26.11;53.66;100932.63;5053148;28;20465;-61
2021/06/29 04:50:14;;;;;;;4.15;2.60;;;;;;;26.15;53.32;100928.41;5048129;28;20494;-60
2021/06/29 04:52:39;;;;;;;10.00;2.80;;;;;;;26.18;53.58;100933.44;5033713;28;20029;-60
2021/06/29 04:55:05;;;;;;;5.03;2.88;;;;;;;26.22;53.37;100933.78;5033239;28;20099;-59
2021/06/29 04:57:36;;;;;;;5.47;2.70;;;;;;;26.23;53.20;100936.31;5017540;28;20035;-58
2021/06/29 05:00:08;;;;;;;6.00;3.03;;;;;;;26.27;53.23;100936.72;5037244;28;20390;-59
2021/06/29 05:02:34;;;;;;;3.45;2.25;;;;;;;26.28;53.06;100928.22;5036208;28;20100;-59
2021/06/29 05:05:00;;;;;;;4.05;2.58;;;;;;;26.30;53.17;100928.03;5019929;28;20026;-59
2021/06/29 05:07:25;;;;;;;2.22;1.98;;;;;;;26.26;53.18;100935.88;5019394;28;20482;-60
2021/06/29 05:09:51;;;;;;;4.53;2.58;;;;;;;26.29;52.99;100940.91;5036959;28;20022;-59
2021/06/29 05:12:16;;;;;;;2.47;1.88;;;;;;;26.30;53.41;100944.50;5037244;28;20039;-60
2021/06/29 05:14:41;;;;;;;3.60;2.10;;;;;;;26.27;53.41;100943.03;5037490;28;20029;-60
2021/06/29 05:17:07;;;;;;;4.00;2.28;;;;;;;26.29;53.05;100951.06;5037168;28;20112;-60
2021/06/29 05:19:32;;;;;;;6.82;2.05;;;;;;;26.20;52.87;100933.19;5036844;28;20528;-60
2021/06/29 05:21:58;;;;;;;4.05;1.95;;;;;;;26.24;52.82;100953.66;5019038;28;20474;-61
2021/06/29 05:24:23;;;;;;;3.83;1.58;;;;;;;26.21;52.69;100956.84;5036838;28;20057;-60
2021/06/29 05:26:50;;;;;;;7.45;2.00;;;;;;;26.18;53.03;100949.06;5037015;28;20076;-60
2021/06/29 05:29:15;;;;;;;8.38;1.85;;;;;;;26.20;52.87;100961.50;5036034;28;20029;-60
2021/06/29 05:31:41;;;;;;;2.65;1.75;;;;;;;26.19;52.89;100961.72;5034308;28;20057;-60
2021/06/29 05:34:06;;;;;;;2.80;1.73;;;;;;;26.17;52.84;100966.59;5037134;28;20038;-59
2021/06/29 05:36:31;;;;;;;8.40;1.98;;;;;;;26.17;52.43;100975.69;5036858;28;20068;-59
2021/06/29 05:38:57;;;;;;;6.38;1.60;;;;;;;26.17;52.79;100975.69;5036982;28;20086;-59
2021/06/29 05:41:22;;;;;;;2.17;1.30;;;;;;;26.19;52.36;100978.19;5035324;28;20079;-60
2021/06/29 05:43:48;;;;;;;4.28;1.38;;;;;;;26.14;52.30;100981.63;5036722;28;20048;-59
2021/06/29 05:46:13;;;;;;;3.75;1.73;;;;;;;26.14;52.61;100989.03;5036737;28;20033;-59
2021/06/29 05:48:39;;;;;;;4.13;1.42;;;;;;;26.14;52.63;100986.28;5036392;28;20051;-59
2021/06/29 05:51:05;;;;;;;5.75;1.55;;;;;;;26.19;52.47;100983.69;5036510;28;20144;-59
2021/06/29 05:53:30;;;;;;;4.40;1.58;;;;;;;26.25;52.39;100986.38;5050027;28;20033;-60
2021/06/29 05:55:57;;;;;;;2.78;1.75;;;;;;;26.30;52.07;100975.53;5056132;28;20037;-59
2021/06/29 05:58:22;;;;;;;1.45;1.23;;;;;;;26.40;52.34;100983.25;5056077;28;20028;-59
2021/06/29 06:00:48;;;;;;;2.05;1.02;;;;;;;26.47;51.80;100986.75;5056173;28;20027;-61
2021/06/29 06:03:14;;;;;;;2.25;1.33;;;;;;;26.53;52.13;100980.34;5056009;28;20028;-60
2021/06/29 06:05:39;;;;;;;2.42;1.38;;;;;;;26.55;51.69;100984.53;5056338;28;20401;-60
2021/06/29 06:08:05;;;;;;;4.13;1.13;;;;;;;26.57;52.06;100967.84;5037616;28;20037;-60
2021/06/29 06:10:30;;;;;;;2.35;1.25;;;;;;;26.60;51.50;100978.38;5055693;28;20511;-61
2021/06/29 06:12:56;;;;;;;2.50;1.05;;;;;;;26.61;52.14;100977.28;5055868;28;20036;-59
2021/06/29 06:15:23;;;;;;;8.02;1.20;;;;;;;26.63;51.49;100977.91;5056010;28;20036;-60
2021/06/29 06:17:48;;;;;;;9.73;1.80;;;;;;;26.64;51.25;100965.81;5056023;28;20385;-59
2021/06/29 06:20:14;;;;;;;1.63;0.98;;;;;;;26.63;51.81;100964.97;5055745;28;20025;-60
2021/06/29 06:22:39;;;;;;;3.67;1.33;;;;;;;26.65;52.07;100967.53;5056347;28;20068;-60
2021/06/29 06:25:06;;;;;;;6.30;1.52;;;;;;;26.69;51.79;100963.22;5021201;28;20033;-59
2021/06/29 06:27:32;;;;;;;1.33;1.23;;;;;;;26.74;51.40;100962.53;5055777;28;20090;-59
2021/06/29 06:29:57;;;;;;;5.50;1.27;;;;;;;26.80;51.38;100964.41;5052947;28;20462;-61
2021/06/29 06:32:22;;;;;;;6.63;1.55;;;;;;;26.91;51.98;100961.69;5055607;28;20044;-60
2021/06/29 06:34:48;;;;;;;3.40;1.20;;;;;;;27.11;51.12;100964.16;5021033;28;20028;-60
2021/06/29 06:37:13;;;;;;;2.42;0.98;;;;;;;27.27;50.82;100966.25;5055655;28;20025;-60
2021/06/29 06:39:38;;;;;;;5.82;1.00;;;;;;;27.43;49.90;100959.25;5055668;28;20112;-60
2021/06/29 06:42:04;;;;;;;3.63;1.08;;;;;;;27.60;49.78;100954.72;5055244;28;20063;-60
2021/06/29 06:44:30;;;;;;;2.72;0.85;;;;;;;27.85;49.43;100949.84;5055118;28;20037;-60
2021/06/29 06:46:55;;;;;;;1.42;1.27;;;;;;;28.09;49.44;100959.78;5055685;28;20546;-61
2021/06/29 06:49:21;;;;;;;2.90;1.08;;;;;;;28.28;49.76;100946.72;5055386;28;20033;-60
2021/06/29 06:51:46;;;;;;;3.45;1.08;;;;;;;28.39;49.23;100947.78;5037336;28;20040;-60
2021/06/29 06:54:11;;;;;;;2.70;1.00;;;;;;;28.51;49.49;100951.31;5055257;28;20108;-60
2021/06/29 06:56:37;;;;;;;4.72;1.10;;;;;;;28.69;48.01;100942.94;5054917;28;20025;-61
2021/06/29 06:59:02;;;;;;;3.25;0.95;;;;;;;28.87;48.21;100945.47;5055133;28;20362;-61
2021/06/29 07:01:30;;;;;;;2.83;1.15;;;;;;;28.94;47.85;100940.66;5054637;28;20021;-61
2021/06/29 07:03:56;;;;;;;2.47;0.70;;;;;;;29.07;48.04;100951.38;5055268;28;20040;-59
2021/06/29 07:06:21;;;;;;;2.97;0.40;;;;;;;29.09;48.22;100940.94;5055568;28;20060;-60
2021/06/29 07:08:46;;;;;;;3.28;1.60;;;;;;;29.14;46.98;100932.78;5055049;28;20031;-59
2021/06/29 07:11:12;;;;;;;3.38;0.75;;;;;;;29.28;46.63;100936.91;5055038;28;20021;-61
2021/06/29 07:13:37;;;;;;;2.15;0.57;;;;;;;29.26;47.72;100932.72;5054838;28;20083;-60
2021/06/29 07:16:03;;;;;;;0.70;0.60;;;;;;;29.19;46.86;100938.38;5055161;28;20024;-60
2021/06/29 07:18:28;;;;;;;1.88;0.70;;;;;;;29.16;46.64;100938.88;5036956;28;20041;-60
2021/06/29 07:20:54;;;;;;;1.13;0.45;;;;;;;29.41;46.53;100942.09;5055005;28;20028;-60
2021/06/29 07:23:19;;;;;;;2.83;0.60;;;;;;;29.52;45.72;100933.97;5054938;28;20033;-60
2021/06/29 07:25:46;;;;;;;1.02;0.40;;;;;;;29.68;46.09;100936.72;5054685;28;20028;-60
2021/06/29 07:28:12;;;;;;;6.43;0.60;;;;;;;29.83;45.36;100934.25;5054646;28;20048;-61
2021/06/29 07:30:38;;;;;;;2.60;0.45;;;;;;;29.89;45.55;100938.78;5060371;28;20033;-61
2021/06/29 07:33:05;;;;;;;1.90;0.57;;;;;;;29.92;45.54;100938.28;5074543;28;20029;-61
2021/06/29 07:35:31;;;;;;;0.82;0.35;;;;;;;29.97;44.99;100935.56;5074716;28;20035;-61
2021/06/29 07:37:59;;;;;;;1.02;0.38;;;;;;;30.03;44.81;100947.53;5074370;28;20025;-60
2021/06/29 07:40:25;;;;;;;1.65;0.40;;;;;;;30.13;44.32;100946.81;5074437;28;20473;-60
2021/06/29 07:42:51;;;;;;;0.75;0.40;;;;;;;30.44;43.91;100948.94;5056863;28;20022;-60
2021/06/29 07:45:16;;;;;;;1.33;0.50;;;;;;;30.65;43.93;100936.22;5074012;28;20024;-60
2021/06/29 07:47:42;;;;;;;1.73;0.52;;;;;;;30.74;44.08;100932.72;5074287;28;20127;-61
2021/06/29 07:50:10;;;;;;;2.05;0.57;;;;;;;30.67;43.93;100934.03;5074384;28;20060;-60
2021/06/29 07:52:36;;;;;;;1.70;0.40;;;;;;;30.73;43.73;100933.84;5073826;28;20035;-60
2021/06/29 07:55:03;;;;;;;0.50;0.30;;;;;;;30.94;43.34;100929.38;5074452;28;20381;-59
2021/06/29 07:57:29;;;;;;;1.25;0.40;;;;;;;31.27;42.68;100928.34;5074119;28;20051;-61
2021/06/29 07:59:54;;;;;;;1.10;0.30;;;;;;;31.64;42.51;100935.59;5074118;28;20025;-60
2021/06/29 08:02:19;;;;;;;1.40;0.52;;;;;;;31.87;41.58;100928.00;5074350;28;20056;-59
2021/06/29 08:04:46;;;;;;;2.95;0.80;;;;;;;32.27;41.65;100931.03;5073723;28;20028;-59
2021/06/29 08:07:11;;;;;;;2.20;0.50;;;;;;;32.59;40.99;100926.22;5073735;28;20059;-58
2021/06/29 08:09:36;;;;;;;0.40;0.25;;;;;;;32.56;40.95;100923.97;5055644;28;20075;-58
2021/06/29 08:12:03;;;;;;;1.50;0.40;;;;;;;32.58;41.01;100918.97;5055353;28;20036;-58
2021/06/29 08:14:28;;;;;;;1.45;0.47;;;;;;;32.78;40.34;100918.22;5055786;28;20029;-59
2021/06/29 08:16:54;;;;;;;2.10;0.40;;;;;;;32.90;41.15;100920.72;5056022;28;20077;-59
2021/06/29 08:19:19;;;;;;;0.50;0.43;;;;;;;32.86;40.16;100919.63;5073774;28;20029;-58
2021/06/29 08:21:44;;;;;;;0.55;0.40;;;;;;;33.08;39.67;100928.59;5074168;28;20095;-58
2021/06/29 08:24:10;;;;;;;0.98;0.80;;;;;;;33.06;40.30;100936.34;5073505;28;20225;-58
2021/06/29 08:26:35;;;;;;;1.58;0.55;;;;;;;33.21;39.26;100936.38;5073682;28;20032;-58
2021/06/29 08:29:01;;;;;;;0.50;0.43;;;;;;;33.74;38.70;100935.00;5073405;28;20025;-58
2021/06/29 08:31:26;;;;;;;0.30;0.30;;;;;;;33.80;38.82;100926.41;5072725;28;20527;-59
2021/06/29 08:33:55;;;;;;;3.30;0.40;;;;;;;34.00;39.50;100930.25;5073685;28;20060;-59
2021/06/29 08:36:21;;;;;;;2.38;0.45;;;;;;;33.88;38.89;100934.16;5073362;28;20477;-59
2021/06/29 08:38:49;;;;;;;0.88;0.70;;;;;;;34.04;39.13;100931.34;5073611;28;20124;-59
2021/06/29 08:41:16;;;;;;;0.95;0.50;;;;;;;34.16;39.01;100929.13;5073313;28;20036;-59
2021/06/29 08:43:41;;;;;;;0.95;0.45;;;;;;;34.32;38.23;100927.94;5073539;28;20036;-59
2021/06/29 08:46:08;;;;;;;1.75;0.20;;;;;;;34.46;37.49;100929.00;5055693;28;20047;-59
2021/06/29 08:48:34;;;;;;;0.52;0.43;;;;;;;34.73;37.97;100923.88;5055532;28;20119;-59
2021/06/29 08:51:04;;;;;;;0.47;0.38;;;;;;;35.00;37.16;100927.06;5073445;28;20103;-59
2021/06/29 08:53:30;;;;;;;1.50;0.57;;;;;;;35.21;36.98;100929.72;5073800;28;20535;-58
2021/06/29 08:55:58;;;;;;;1.38;0.45;;;;;;;35.40;36.80;100933.50;5073683;28;20032;-59
2021/06/29 08:58:23;;;;;;;2.35;0.40;;;;;;;35.64;36.16;100934.44;5073147;28;20108;-60
2021/06/29 09:00:50;;;;;;;0.82;0.40;;;;;;;35.74;36.32;100925.97;5055171;28;20029;-59
2021/06/29 09:03:15;;;;;;;0.40;0.40;;;;;;;35.74;36.03;100928.75;5073208;28;20487;-59
2021/06/29 09:05:51;;;;;;;0.60;0.45;;;;;;;35.84;35.99;100919.47;5073644;28;20025;-58
2021/06/29 09:08:21;;;;;;;1.95;0.68;;;;;;;35.89;36.46;100920.25;5073822;28;20020;-59
2021/06/29 09:11:11;;;;;;;4.78;0.60;;;;;;;36.05;35.64;100912.56;5073316;28;20510;-59
2021/06/29 09:13:38;;;;;;;1.08;0.70;;;;;;;36.21;35.27;100912.06;5073269;28;20534;-59
2021/06/29 09:16:04;;;;;;;4.32;0.50;;;;;;;36.29;35.13;100912.56;5055596;28;20021;-58
2021/06/29 09:18:32;;;;;;;0.98;0.47;;;;;;;36.46;34.93;100901.75;5072928;28;20115;-60
2021/06/29 09:21:06;;;;;;;0.52;0.40;;;;;;;36.67;34.74;100909.56;5073179;28;20017;-58
2021/06/29 09:23:36;;;;;;;2.53;0.43;;;;;;;36.87;34.65;100902.03;5073244;28;20024;-59
2021/06/29 09:26:10;;;;;;;1.92;0.45;;;;;;;37.09;34.12;100903.09;5072958;28;20027;-59
2021/06/29 09:28:41;;;;;;;0.65;0.43;;;;;;;37.22;34.33;100888.34;5073209;28;20024;-59
2021/06/29 09:31:14;;;;;;;1.73;0.30;;;;;;;37.40;33.65;100888.63;5072584;28;20079;-59
2021/06/29 09:33:42;;;;;;;1.10;0.40;;;;;;;37.55;33.46;100891.19;5073080;28;20496;-58
2021/06/29 09:36:12;;;;;;;1.83;0.40;;;;;;;37.72;33.93;100891.41;5072952;28;20100;-58
2021/06/29 09:38:39;;;;;;;2.05;0.38;;;;;;;37.84;33.12;100894.53;5072996;28;20024;-59
2021/06/29 09:41:29;;;;;;;1.13;0.40;;;;;;;38.03;32.88;100902.88;5071054;28;20358;-59
2021/06/29 09:43:57;;;;;;;1.17;0.50;;;;;;;38.15;32.63;100892.84;5033399;28;20034;-59
2021/06/29 09:46:24;;;;;;;0.80;0.40;;;;;;;38.24;32.24;100898.53;5018806;28;20495;-59
2021/06/29 09:48:56;;;;;;;2.63;0.50;;;;;;;38.36;32.82;100901.69;5050147;28;20123;-59
2021/06/29 09:51:30;;;;;;;0.70;0.45;;;;;;;38.47;32.85;100891.09;5035296;28;20034;-58
2021/06/29 09:53:58;;;;;;;1.88;0.57;;;;;;;38.58;32.32;100892.53;5036531;28;20052;-59
2021/06/29 09:56:49;;;;;;;2.33;1.15;;;;;;;38.75;32.57;100898.28;5036515;28;20108;-60
2021/06/29 09:59:22;;;;;;;0.57;0.57;;;;;;;38.86;32.46;100900.56;5036391;28;20104;-59
2021/06/29 10:01:48;;;;;;;0.65;0.47;;;;;;;39.03;31.44;100899.91;5036063;28;20056;-59
2021/06/29 10:04:14;;;;;;;1.55;0.68;;;;;;;39.13;31.85;100899.63;5035998;28;20032;-59
2021/06/29 10:06:41;;;;;;;1.08;0.77;;;;;;;39.49;31.67;100908.00;5036214;28;20029;-59
2021/06/29 10:09:07;;;;;;;97.00;92.75;;;;;;;39.92;31.22;100905.50;5036502;28;20409;-59
2021/06/29 10:11:52;;;;;;;1999.90;999.90;;;;;;;40.43;29.80;100904.84;5036245;28;20065;-60
2021/06/29 10:14:18;;;;;;;79.72;76.00;;;;;;;41.14;29.43;100897.88;5018900;28;20040;-59
2021/06/29 10:16:48;;;;;;;4.10;1.23;;;;;;;42.15;28.43;100900.00;5036240;28;20437;-58
2021/06/29 10:19:26;;;;;;;1.88;0.80;;;;;;;43.09;27.60;100899.41;5036010;28;20036;-59
2021/06/29 10:21:55;;;;;;;1.10;0.98;;;;;;;42.87;28.15;100897.75;5035965;28;20033;-60
2021/06/29 10:24:23;;;;;;;1.65;0.57;;;;;;;41.90;28.64;100898.09;5018205;28;20030;-59
2021/06/29 10:26:51;;;;;;;0.85;0.50;;;;;;;41.21;29.51;100898.19;5018605;28;20525;-59
2021/06/29 10:29:20;;;;;;;1.20;0.52;;;;;;;40.30;30.05;100895.41;5035592;28;20028;-60
2021/06/29 10:31:50;;;;;;;19.38;8.95;;;;;;;39.82;29.44;100888.91;5035503;28;20041;-59
2021/06/29 10:34:16;;;;;;;1.52;1.42;;;;;;;39.91;29.27;100887.81;5035563;28;20140;-60
2021/06/29 10:36:48;;;;;;;3.13;1.50;;;;;;;40.30;28.83;100887.00;5017947;28;20029;-60
2021/06/29 10:39:16;;;;;;;2.58;1.50;;;;;;;40.55;29.41;100880.63;5035951;28;20030;-60
2021/06/29 10:41:44;;;;;;;1.55;1.00;;;;;;;40.05;29.74;100882.91;5035559;28;20355;-59
2021/06/29 10:44:11;;;;;;;3.63;0.65;;;;;;;40.43;29.00;100871.97;5035492;28;20025;-60
2021/06/29 10:46:41;;;;;;;1.27;0.82;;;;;;;40.32;28.77;100870.63;5035240;28;20029;-59
2021/06/29 10:49:33;;;;;;;2.40;2.20;;;;;;;40.76;28.69;100874.38;5035186;28;20108;-60
2021/06/29 10:52:04;;;;;;;2.17;1.73;;;;;;;41.17;28.33;100874.72;5017737;28;20036;-59
2021/06/29 10:54:50;;;;;;;2.45;2.35;;;;;;;41.52;28.30;100859.44;5034616;28;20025;-59
2021/06/29 10:57:18;;;;;;;1.48;1.48;;;;;;;41.88;28.23;100855.38;5035306;28;20167;-60
2021/06/29 10:59:50;;;;;;;0.73;0.73;;;;;;;41.10;28.38;100846.25;5035271;28;20026;-59
2021/06/29 11:02:37;;;;;;;2.03;1.10;;;;;;;41.27;28.36;100843.41;5034848;28;20026;-59
2021/06/29 11:05:06;;;;;;;0.65;0.65;;;;;;;41.74;27.75;100845.16;5034852;28;20573;-59
2021/06/29 11:07:31;;;;;;;1.33;0.77;;;;;;;42.17;27.55;100844.16;5035120;28;20043;-60
2021/06/29 11:10:02;;;;;;;4.17;0.90;;;;;;;42.56;27.04;100835.28;5035096;28;20116;-59
2021/06/29 11:12:31;;;;;;;0.43;0.43;;;;;;;42.26;27.28;100833.66;5017420;28;20258;-59
2021/06/29 11:14:58;;;;;;;1.02;0.70;;;;;;;41.35;28.25;100842.59;5035002;28;20159;-59
2021/06/29 11:17:46;;;;;;;1.13;0.40;;;;;;;40.53;28.98;100849.22;5035283;28;20527;-59
2021/06/29 11:20:14;;;;;;;1.02;0.55;;;;;;;40.21;28.90;100858.03;5034593;28;20107;-59
2021/06/29 11:22:51;;;;;;;2.58;0.40;;;;;;;40.14;28.89;100857.72;5017192;28;20045;-59
2021/06/29 11:25:42;;;;;;;1.48;0.63;;;;;;;40.22;28.75;100851.28;5034862;28;20025;-59